Time;durP1;ratioP1;P1;durP2;ratioP2;P2;SDS_P1;SDS_P2;PMS_P1;PMS_P2;Temp;Humidity;BMP_temperature;BMP_pressure;BME280_temperature;BME280_humidity;BME280_pressure;Samples;Min_cycle;Max_cycle;Signal;HPM_P1;HPM_P2
2021/07/11 00:01:07;;;;;;;2.40;2.20;;;15.20;99.90;;;;;;5030194;28;20496;-57
2021/07/11 00:03:33;;;;;;;3.27;2.00;;;15.10;99.90;;;;;;5031682;28;20175;-57
2021/07/11 00:05:59;;;;;;;3.83;3.00;;;15.10;99.90;;;;;;5031423;28;20245;-55
2021/07/11 00:08:24;;;;;;;3.90;2.43;;;15.10;99.90;;;;;;5022627;28;20281;-58
2021/07/11 00:10:50;;;;;;;3.73;2.17;;;15.10;99.90;;;;;;5031731;28;20207;-55
2021/07/11 00:13:16;;;;;;;2.50;2.30;;;15.10;99.90;;;;;;5031774;28;20202;-57
2021/07/11 00:15:41;;;;;;;2.40;2.20;;;15.00;99.90;;;;;;5029494;28;20196;-55
2021/07/11 00:18:07;;;;;;;2.30;2.07;;;15.00;99.90;;;;;;5025416;28;20204;-57
2021/07/11 00:20:33;;;;;;;2.53;2.33;;;15.00;99.90;;;;;;5021117;28;20276;-56
2021/07/11 00:22:59;;;;;;;2.83;2.57;;;15.00;99.90;;;;;;5023155;28;20440;-56
2021/07/11 00:25:25;;;;;;;3.23;1.90;;;15.00;99.90;;;;;;5019726;28;20879;-58
2021/07/11 00:27:50;;;;;;;5.00;2.27;;;15.00;99.90;;;;;;5026161;28;20215;-56
2021/07/11 00:30:18;;;;;;;3.53;2.30;;;15.00;99.90;;;;;;5025643;28;20207;-56
2021/07/11 00:32:44;;;;;;;6.00;2.00;;;15.00;99.90;;;;;;5028283;28;20188;-56
2021/07/11 00:35:10;;;;;;;2.20;2.00;;;15.00;99.90;;;;;;5030969;28;20413;-57
2021/07/11 00:37:36;;;;;;;1.97;1.83;;;15.00;99.90;;;;;;5030500;28;20831;-56
2021/07/11 00:40:05;;;;;;;2.10;2.00;;;15.00;99.90;;;;;;5024572;28;20437;-55
2021/07/11 00:42:31;;;;;;;3.70;2.43;;;15.00;99.90;;;;;;5027050;28;20556;-57
2021/07/11 00:44:57;;;;;;;2.00;1.90;;;15.00;99.90;;;;;;5028437;28;20465;-57
2021/07/11 00:47:22;;;;;;;2.77;2.20;;;15.00;99.90;;;;;;5031112;28;20488;-56
2021/07/11 00:49:48;;;;;;;7.70;2.30;;;15.00;99.90;;;;;;5018109;28;20697;-58
2021/07/11 00:52:14;;;;;;;3.20;2.20;;;15.00;99.90;;;;;;5033379;28;20176;-58
2021/07/11 00:54:41;;;;;;;2.40;2.00;;;15.00;99.90;;;;;;5039521;28;20676;-58
2021/07/11 00:57:07;;;;;;;3.03;2.40;;;15.00;99.90;;;;;;5034675;28;20486;-57
2021/07/11 00:59:34;;;;;;;2.30;2.10;;;15.00;99.90;;;;;;5033760;28;20488;-57
2021/07/11 01:02:06;;;;;;;3.10;2.23;;;15.00;99.90;;;;;;5039239;28;20434;-56
2021/07/11 01:04:44;;;;;;;2.13;1.93;;;15.00;99.90;;;;;;5021638;28;21298;-57
2021/07/11 01:07:10;;;;;;;2.80;2.40;;;15.00;99.90;;;;;;5028337;28;20438;-57
2021/07/11 01:09:41;;;;;;;4.67;2.50;;;14.90;99.90;;;;;;5030375;28;20419;-57
2021/07/11 01:12:20;;;;;;;2.33;2.10;;;15.00;99.90;;;;;;5030257;28;20184;-58
2021/07/11 01:14:50;;;;;;;4.17;2.13;;;14.90;99.90;;;;;;5028364;28;20430;-58
2021/07/11 01:17:18;;;;;;;3.30;2.40;;;15.00;99.90;;;;;;5029815;28;20426;-57
2021/07/11 01:19:59;;;;;;;4.90;2.17;;;15.00;99.90;;;;;;5028848;28;20414;-56
2021/07/11 01:22:30;;;;;;;4.90;2.20;;;15.00;99.90;;;;;;5029609;28;20438;-55
2021/07/11 01:25:08;;;;;;;4.23;2.70;;;15.00;99.90;;;;;;5025794;28;20990;-57
2021/07/11 01:27:35;;;;;;;2.27;1.97;;;15.00;99.90;;;;;;5011122;28;20928;-57
2021/07/11 01:30:03;;;;;;;2.50;2.30;;;15.00;99.90;;;;;;5010992;28;20408;-56
2021/07/11 01:32:29;;;;;;;10.30;2.20;;;15.00;99.90;;;;;;5026852;28;20449;-58
2021/07/11 01:35:00;;;;;;;2.67;2.47;;;15.00;99.90;;;;;;5029909;28;20434;-57
2021/07/11 01:37:27;;;;;;;5.23;2.20;;;15.00;99.90;;;;;;5018599;28;20445;-57
2021/07/11 01:39:54;;;;;;;2.63;2.40;;;15.00;99.90;;;;;;5027975;28;20438;-56
2021/07/11 01:42:20;;;;;;;2.33;1.90;;;15.00;99.90;;;;;;5023766;28;20430;-57
2021/07/11 01:44:46;;;;;;;6.53;2.47;;;15.00;99.90;;;;;;5023268;28;20827;-57
2021/07/11 01:47:11;;;;;;;2.27;2.13;;;15.00;99.90;;;;;;5029599;28;20774;-57
2021/07/11 01:49:40;;;;;;;3.17;2.50;;;15.00;99.90;;;;;;5029830;28;20411;-57
2021/07/11 01:52:06;;;;;;;3.07;2.50;;;15.00;99.90;;;;;;5029214;28;20542;-57
2021/07/11 01:54:32;;;;;;;5.20;2.67;;;15.00;99.90;;;;;;5024744;28;20446;-58
2021/07/11 01:56:58;;;;;;;2.40;2.20;;;14.90;99.90;;;;;;5027382;28;20427;-57
2021/07/11 01:59:23;;;;;;;3.07;2.13;;;14.90;99.90;;;;;;5029865;28;20198;-57
2021/07/11 02:01:49;;;;;;;3.10;2.20;;;15.00;99.90;;;;;;5021488;28;20199;-59
2021/07/11 02:04:14;;;;;;;3.23;2.43;;;15.00;99.90;;;;;;5025129;28;20672;-56
2021/07/11 02:06:42;;;;;;;4.67;2.77;;;15.00;99.90;;;;;;5025581;28;20171;-57
2021/07/11 02:09:08;;;;;;;6.27;3.07;;;15.00;99.90;;;;;;5028803;28;20610;-57
2021/07/11 02:11:39;;;;;;;3.17;2.87;;;14.90;99.90;;;;;;5027568;28;20434;-58
2021/07/11 02:14:11;;;;;;;5.43;3.70;;;14.90;99.90;;;;;;5026595;28;20472;-57
2021/07/11 02:16:48;;;;;;;3.30;2.87;;;14.90;99.90;;;;;;5029689;28;20525;-56
2021/07/11 02:19:15;;;;;;;3.73;2.50;;;15.00;99.90;;;;;;5029670;28;20441;-57
2021/07/11 02:21:41;;;;;;;4.10;2.97;;;15.00;99.90;;;;;;5011773;28;20442;-58
2021/07/11 02:24:07;;;;;;;4.13;2.90;;;15.00;99.90;;;;;;5025343;28;20470;-56
2021/07/11 02:26:36;;;;;;;4.70;2.90;;;14.90;99.90;;;;;;5028789;28;20186;-57
2021/07/11 02:29:04;;;;;;;2.83;2.50;;;14.90;99.90;;;;;;5015078;28;20451;-57
2021/07/11 02:31:33;;;;;;;7.67;2.40;;;14.90;99.90;;;;;;5009063;28;20419;-56
2021/07/11 02:33:59;;;;;;;2.13;2.03;;;14.90;99.90;;;;;;5025640;28;20426;-57
2021/07/11 02:36:29;;;;;;;4.50;2.80;;;14.90;99.90;;;;;;5028963;28;20898;-57
2021/07/11 02:39:02;;;;;;;3.43;2.53;;;14.90;99.90;;;;;;5014379;28;20212;-56
2021/07/11 02:41:31;;;;;;;5.23;2.57;;;14.90;99.90;;;;;;5019757;28;20944;-56
2021/07/11 02:43:59;;;;;;;4.00;2.47;;;14.90;99.90;;;;;;5020226;28;20972;-57
2021/07/11 02:46:30;;;;;;;3.83;2.77;;;14.90;99.90;;;;;;5016374;28;20855;-55
2021/07/11 02:48:56;;;;;;;2.17;1.93;;;14.90;99.90;;;;;;5024857;28;20431;-58
2021/07/11 02:51:27;;;;;;;2.30;2.10;;;14.90;99.90;;;;;;5017199;28;20423;-58
2021/07/11 02:53:56;;;;;;;2.97;2.67;;;14.90;99.90;;;;;;5027413;28;20187;-57
2021/07/11 02:56:23;;;;;;;4.90;2.80;;;14.90;99.90;;;;;;5023182;28;20429;-55
2021/07/11 02:58:53;;;;;;;3.30;2.37;;;14.90;99.90;;;;;;5027224;28;20458;-57
2021/07/11 03:01:19;;;;;;;4.57;2.80;;;14.80;99.90;;;;;;5026471;28;20434;-58
2021/07/11 03:03:47;;;;;;;2.77;2.43;;;14.80;99.90;;;;;;5026891;28;20468;-58
2021/07/11 03:06:13;;;;;;;2.67;2.10;;;14.80;99.90;;;;;;5015974;28;20180;-56
2021/07/11 03:08:39;;;;;;;3.93;3.13;;;14.80;99.90;;;;;;5024080;28;20503;-58
2021/07/11 03:11:05;;;;;;;3.20;2.50;;;14.80;99.90;;;;;;5020926;28;20196;-58
2021/07/11 03:13:34;;;;;;;5.63;2.63;;;14.80;99.90;;;;;;5012274;28;21014;-58
2021/07/11 03:16:00;;;;;;;3.10;2.80;;;14.80;99.90;;;;;;5024525;28;20416;-57
2021/07/11 03:18:30;;;;;;;3.60;2.37;;;14.80;99.90;;;;;;5017197;28;20443;-57
2021/07/11 03:20:56;;;;;;;2.43;2.23;;;14.80;99.90;;;;;;5027715;28;20191;-57
2021/07/11 03:23:26;;;;;;;2.90;2.23;;;14.80;99.90;;;;;;5029202;28;20509;-57
2021/07/11 03:25:52;;;;;;;3.03;2.73;;;14.80;99.90;;;;;;5012176;28;20832;-57
2021/07/11 03:28:19;;;;;;;4.67;2.97;;;14.80;99.90;;;;;;5017799;28;20533;-57
2021/07/11 03:30:49;;;;;;;4.10;2.40;;;14.70;99.90;;;;;;5020916;28;21007;-57
2021/07/11 03:33:16;;;;;;;4.90;2.27;;;14.70;99.90;;;;;;5012555;28;20431;-58
2021/07/11 03:35:57;;;;;;;2.67;2.47;;;14.70;99.90;;;;;;5028562;28;20412;-57
2021/07/11 03:38:26;;;;;;;4.30;2.20;;;14.60;99.90;;;;;;5008500;28;20455;-58
2021/07/11 03:40:55;;;;;;;2.60;2.40;;;14.60;99.90;;;;;;5021854;28;20430;-58
2021/07/11 03:43:24;;;;;;;4.80;2.53;;;14.60;99.90;;;;;;5031620;28;20434;-56
2021/07/11 03:45:54;;;;;;;3.07;2.17;;;14.60;99.90;;;;;;5032403;28;20456;-57
2021/07/11 03:48:25;;;;;;;2.33;2.17;;;14.60;99.90;;;;;;5029862;28;20946;-57
2021/07/11 03:50:56;;;;;;;3.40;3.00;;;14.60;99.90;;;;;;5032958;28;20584;-56
2021/07/11 03:53:25;;;;;;;3.93;2.63;;;14.50;99.90;;;;;;5029711;28;20873;-56
2021/07/11 03:55:52;;;;;;;2.93;2.53;;;14.50;99.90;;;;;;5022873;28;20473;-56
2021/07/11 03:58:20;;;;;;;8.00;2.37;;;14.50;99.90;;;;;;5030006;28;20890;-57
2021/07/11 04:00:46;;;;;;;4.07;2.63;;;14.50;99.90;;;;;;5026958;28;20442;-56
2021/07/11 04:03:14;;;;;;;3.20;2.33;;;14.50;99.90;;;;;;5017596;28;20919;-57
2021/07/11 04:05:40;;;;;;;4.10;2.70;;;14.50;99.90;;;;;;5029563;28;20552;-57
2021/07/11 04:08:13;;;;;;;2.37;2.17;;;14.50;99.90;;;;;;5030166;28;20892;-58
2021/07/11 04:10:40;;;;;;;2.73;2.53;;;14.50;99.90;;;;;;5023898;28;20935;-57
2021/07/11 04:13:06;;;;;;;10.03;2.60;;;14.40;99.90;;;;;;5031188;28;20414;-57
2021/07/11 04:15:33;;;;;;;2.50;2.30;;;14.40;99.90;;;;;;5024574;28;20500;-55
2021/07/11 04:18:05;;;;;;;3.20;2.63;;;14.40;99.90;;;;;;5020901;28;20207;-54
2021/07/11 04:20:31;;;;;;;2.50;2.30;;;14.40;99.90;;;;;;5016690;28;20461;-58
2021/07/11 04:22:59;;;;;;;6.63;2.57;;;14.30;99.90;;;;;;5031264;28;20438;-57
2021/07/11 04:25:29;;;;;;;2.60;2.40;;;14.30;99.90;;;;;;5030056;28;20982;-56
2021/07/11 04:27:56;;;;;;;5.30;2.70;;;14.30;99.90;;;;;;5029074;28;20545;-58
2021/07/11 04:30:22;;;;;;;2.40;2.20;;;14.30;99.90;;;;;;5029848;28;20430;-57
2021/07/11 04:32:48;;;;;;;4.23;2.77;;;14.30;99.90;;;;;;5031324;28;20433;-57
2021/07/11 04:35:14;;;;;;;2.90;2.50;;;14.30;99.90;;;;;;5030009;28;20437;-57
2021/07/11 04:37:40;;;;;;;4.20;2.50;;;14.30;99.90;;;;;;5011644;28;20449;-56
2021/07/11 04:40:07;;;;;;;2.60;2.40;;;14.30;99.90;;;;;;5025914;28;20419;-57
2021/07/11 04:42:32;;;;;;;3.63;2.20;;;14.30;99.90;;;;;;5027569;28;20184;-57
2021/07/11 04:45:01;;;;;;;3.70;2.50;;;14.30;99.90;;;;;;5029441;28;20527;-56
2021/07/11 04:47:27;;;;;;;2.97;2.50;;;14.30;99.90;;;;;;5029794;28;20556;-56
2021/07/11 04:49:53;;;;;;;2.83;2.50;;;14.30;99.90;;;;;;5031543;28;20413;-56
2021/07/11 04:52:18;;;;;;;3.13;2.50;;;14.30;99.90;;;;;;5019669;28;20780;-55
2021/07/11 04:54:44;;;;;;;3.00;2.70;;;14.30;99.90;;;;;;5024726;28;20172;-55
2021/07/11 04:57:10;;;;;;;4.73;2.90;;;14.30;99.90;;;;;;5030803;28;20191;-55
2021/07/11 04:59:35;;;;;;;3.30;3.00;;;14.40;99.90;;;;;;5027790;28;20183;-56
2021/07/11 05:02:01;;;;;;;4.23;3.03;;;14.50;99.90;;;;;;5028665;28;20244;-57
2021/07/11 05:04:28;;;;;;;3.50;2.70;;;14.60;99.90;;;;;;5029618;28;20284;-55
2021/07/11 05:06:54;;;;;;;4.70;2.63;;;14.70;99.90;;;;;;5029576;28;20180;-57
2021/07/11 05:09:20;;;;;;;3.30;2.90;;;14.80;99.90;;;;;;5020898;28;20457;-56
2021/07/11 05:11:46;;;;;;;7.33;2.57;;;14.90;99.90;;;;;;5018985;28;20422;-56
2021/07/11 05:14:11;;;;;;;6.03;3.40;;;14.90;99.90;;;;;;5024426;28;20203;-56
2021/07/11 05:16:37;;;;;;;3.37;3.07;;;14.90;99.90;;;;;;5025482;28;20222;-55
2021/07/11 05:19:03;;;;;;;5.30;3.30;;;14.90;99.90;;;;;;5022447;28;20204;-57
2021/07/11 05:21:29;;;;;;;6.30;3.47;;;14.90;99.90;;;;;;5014811;28;20192;-58
2021/07/11 05:23:56;;;;;;;5.97;3.40;;;14.90;99.90;;;;;;5022718;28;20456;-57
2021/07/11 05:26:22;;;;;;;4.23;3.30;;;14.90;99.90;;;;;;5017082;28;20989;-57
2021/07/11 05:28:48;;;;;;;4.10;3.20;;;14.90;99.90;;;;;;5019948;28;20454;-58
2021/07/11 05:31:14;;;;;;;3.03;2.33;;;15.00;99.90;;;;;;5027422;28;20629;-58
2021/07/11 05:33:40;;;;;;;3.90;2.90;;;15.00;99.90;;;;;;5029011;28;20171;-57
2021/07/11 05:36:08;;;;;;;4.20;3.00;;;15.10;99.90;;;;;;5024583;28;20262;-58
2021/07/11 05:38:34;;;;;;;3.20;2.90;;;15.10;99.90;;;;;;5025200;28;20470;-60
2021/07/11 05:40:59;;;;;;;4.10;3.10;;;15.10;99.90;;;;;;5015972;28;20434;-58
2021/07/11 05:43:25;;;;;;;3.23;2.93;;;15.20;99.90;;;;;;5017496;28;20426;-58
2021/07/11 05:45:51;;;;;;;5.67;3.10;;;15.20;99.90;;;;;;5018708;28;20251;-62
2021/07/11 05:48:16;;;;;;;3.10;2.80;;;15.20;99.90;;;;;;5010625;28;20333;-56
2021/07/11 05:50:42;;;;;;;8.00;3.30;;;15.20;99.90;;;;;;5012678;28;20176;-55
2021/07/11 05:53:10;;;;;;;4.93;3.30;;;15.20;99.90;;;;;;5014587;28;20198;-59
2021/07/11 05:55:40;;;;;;;5.83;3.63;;;15.20;99.90;;;;;;5015737;28;20578;-56
2021/07/11 05:58:06;;;;;;;3.60;3.13;;;15.20;99.90;;;;;;5013214;28;20511;-57
2021/07/11 06:00:32;;;;;;;7.67;3.50;;;15.30;99.90;;;;;;5012575;28;20447;-58
2021/07/11 06:02:58;;;;;;;3.90;2.80;;;15.30;99.90;;;;;;5017236;28;20471;-57
2021/07/11 06:05:24;;;;;;;4.30;2.80;;;15.40;99.90;;;;;;5014053;28;20462;-57
2021/07/11 06:07:49;;;;;;;5.13;3.40;;;15.40;99.90;;;;;;5009677;28;20326;-57
2021/07/11 06:10:16;;;;;;;3.67;3.30;;;15.50;99.90;;;;;;5018375;28;20185;-57
2021/07/11 06:12:42;;;;;;;4.77;3.83;;;15.50;99.90;;;;;;5012704;28;20310;-58
2021/07/11 06:15:08;;;;;;;7.23;3.33;;;15.50;99.90;;;;;;5016447;28;20443;-59
2021/07/11 06:17:35;;;;;;;5.43;3.10;;;15.60;99.90;;;;;;5024121;28;20454;-57
2021/07/11 06:20:05;;;;;;;3.60;3.10;;;15.60;99.90;;;;;;5015989;28;20436;-56
2021/07/11 06:22:32;;;;;;;3.23;2.93;;;15.70;99.90;;;;;;5010180;28;20453;-58
2021/07/11 06:24:57;;;;;;;3.57;3.10;;;15.70;99.90;;;;;;5005014;28;20462;-57
2021/07/11 06:27:23;;;;;;;4.33;3.10;;;15.70;99.90;;;;;;5005683;28;20442;-57
2021/07/11 06:29:49;;;;;;;6.20;3.40;;;15.70;99.90;;;;;;5008575;28;20189;-59
2021/07/11 06:32:14;;;;;;;7.53;3.10;;;15.70;99.90;;;;;;5008197;28;20195;-57
2021/07/11 06:34:40;;;;;;;3.17;2.87;;;15.70;99.90;;;;;;5017785;28;20266;-57
2021/07/11 06:37:06;;;;;;;4.67;3.00;;;15.80;99.90;;;;;;5014506;28;20644;-59
2021/07/11 06:39:32;;;;;;;4.53;3.87;;;15.80;99.90;;;;;;5010823;28;20467;-57
2021/07/11 06:41:57;;;;;;;11.60;3.00;;;15.90;99.90;;;;;;5051316;22;20950;-55
2021/07/11 06:44:23;;;;;;;5.17;2.97;;;16.00;99.90;;;;;;5030768;28;20195;-55
2021/07/11 06:46:48;;;;;;;4.60;3.00;;;16.00;99.90;;;;;;5035073;28;20805;-55
2021/07/11 06:49:14;;;;;;;3.20;2.83;;;16.10;99.90;;;;;;5032817;28;20176;-54
2021/07/11 06:51:40;;;;;;;4.03;2.77;;;16.30;99.90;;;;;;5032571;28;20544;-54
2021/07/11 06:54:06;;;;;;;3.67;2.57;;;16.60;99.90;;;;;;5032837;28;20175;-53
2021/07/11 06:56:31;;;;;;;6.50;3.63;;;16.80;99.90;;;;;;5035352;28;20191;-56
2021/07/11 06:58:57;;;;;;;4.60;2.87;;;17.00;99.90;;;;;;5036160;28;20188;-54
2021/07/11 07:01:23;;;;;;;2.90;2.57;;;17.10;99.90;;;;;;5032749;28;20600;-55
2021/07/11 07:03:49;;;;;;;2.60;2.40;;;17.10;99.90;;;;;;5034615;28;20176;-53
2021/07/11 07:06:15;;;;;;;3.20;2.40;;;17.10;99.90;;;;;;5032922;28;20481;-55
2021/07/11 07:08:40;;;;;;;4.57;3.53;;;17.20;99.90;;;;;;5034260;28;20190;-54
2021/07/11 07:11:06;;;;;;;4.80;3.30;;;17.30;99.90;;;;;;5031030;28;20407;-55
2021/07/11 07:13:31;;;;;;;5.00;2.77;;;17.30;99.90;;;;;;5031328;28;20187;-54
2021/07/11 07:15:57;;;;;;;3.60;2.70;;;17.40;99.90;;;;;;5036446;28;20193;-55
2021/07/11 07:18:23;;;;;;;2.60;2.27;;;17.50;99.90;;;;;;5041093;28;20635;-54
2021/07/11 07:20:48;;;;;;;3.43;2.63;;;17.60;99.90;;;;;;5037259;28;20202;-54
2021/07/11 07:23:14;;;;;;;2.77;2.53;;;17.80;99.90;;;;;;5040036;28;20547;-55
2021/07/11 07:25:40;;;;;;;3.07;2.70;;;18.10;99.90;;;;;;5041652;28;20604;-55
2021/07/11 07:28:10;;;;;;;4.93;3.03;;;18.20;99.90;;;;;;5040051;28;20183;-59
2021/07/11 07:30:36;;;;;;;3.53;2.30;;;18.30;99.90;;;;;;5036202;28;20203;-54
2021/07/11 07:33:02;;;;;;;4.83;2.33;;;18.30;98.60;;;;;;5034303;28;20989;-55
2021/07/11 07:35:27;;;;;;;3.63;2.43;;;18.40;97.60;;;;;;5033059;28;20711;-54
2021/07/11 07:37:53;;;;;;;2.50;2.30;;;18.40;96.40;;;;;;5030528;28;20179;-56
2021/07/11 07:40:20;;;;;;;3.30;2.30;;;18.40;96.50;;;;;;5035357;28;20187;-54
2021/07/11 07:42:47;;;;;;;2.43;2.23;;;18.40;95.60;;;;;;5039293;28;20230;-55
2021/07/11 07:45:13;;;;;;;2.57;2.37;;;18.50;96.40;;;;;;5033314;28;20456;-55
2021/07/11 07:47:39;;;;;;;5.33;2.60;;;18.60;92.70;;;;;;5037436;28;20438;-54
2021/07/11 07:50:07;;;;;;;2.80;2.47;;;18.60;92.30;;;;;;5039336;28;20426;-53
2021/07/11 07:52:33;;;;;;;3.47;2.13;;;18.70;92.30;;;;;;5043942;28;20187;-54
2021/07/11 07:54:58;;;;;;;3.33;2.50;;;18.80;93.50;;;;;;5042332;28;20452;-52
2021/07/11 07:57:24;;;;;;;2.97;2.10;;;18.80;92.60;;;;;;5042975;28;20187;-51
2021/07/11 07:59:49;;;;;;;2.90;2.40;;;18.80;91.90;;;;;;5037279;28;20172;-54
2021/07/11 08:02:15;;;;;;;2.87;2.60;;;18.80;92.50;;;;;;5038582;28;20214;-54
2021/07/11 08:04:42;;;;;;;2.80;2.20;;;18.80;93.80;;;;;;5042885;28;20686;-55
2021/07/11 08:07:08;;;;;;;2.10;1.90;;;18.90;93.50;;;;;;5041311;28;20314;-54
2021/07/11 08:09:34;;;;;;;2.57;2.30;;;19.00;92.50;;;;;;5040841;28;20432;-55
2021/07/11 08:12:00;;;;;;;3.47;2.20;;;19.00;92.40;;;;;;5038950;28;20461;-57
2021/07/11 08:14:25;;;;;;;2.37;2.17;;;18.90;90.80;;;;;;5041104;28;20199;-56
2021/07/11 08:16:51;;;;;;;2.10;1.90;;;18.90;91.00;;;;;;5039981;28;20429;-54
2021/07/11 08:19:17;;;;;;;2.23;1.83;;;19.00;82.10;;;;;;5043604;28;20270;-55
2021/07/11 08:21:42;;;;;;;2.33;1.90;;;19.10;77.90;;;;;;5045020;28;20260;-54
2021/07/11 08:24:08;;;;;;;2.50;2.00;;;19.10;83.70;;;;;;5034485;28;20209;-55
2021/07/11 08:26:34;;;;;;;2.80;2.20;;;19.30;83.70;;;;;;5040871;28;20167;-53
2021/07/11 08:29:00;;;;;;;6.90;1.83;;;19.50;78.30;;;;;;5041156;28;20164;-56
2021/07/11 08:31:26;;;;;;;2.67;1.93;;;19.50;77.00;;;;;;5040226;28;20191;-56
2021/07/11 08:33:52;;;;;;;4.53;1.90;;;19.60;82.90;;;;;;5045315;28;20457;-56
2021/07/11 08:36:18;;;;;;;2.60;2.07;;;19.70;79.90;;;;;;5040471;28;20895;-56
2021/07/11 08:38:43;;;;;;;1.67;1.50;;;19.70;79.00;;;;;;5046846;28;20746;-54
2021/07/11 08:41:11;;;;;;;2.43;1.77;;;19.50;74.70;;;;;;5037628;28;20610;-55
2021/07/11 08:43:40;;;;;;;3.10;1.53;;;19.30;70.70;;;;;;5043603;28;20201;-55
2021/07/11 08:46:06;;;;;;;1.60;1.50;;;19.20;73.60;;;;;;5042981;28;20824;-54
2021/07/11 08:48:32;;;;;;;2.60;2.00;;;19.10;76.50;;;;;;5046696;28;20426;-53
2021/07/11 08:51:01;;;;;;;1.63;1.53;;;19.00;75.40;;;;;;5038674;28;20198;-55
2021/07/11 08:53:27;;;;;;;4.70;2.00;;;19.00;75.30;;;;;;5029065;28;20175;-55
2021/07/11 08:55:52;;;;;;;2.80;1.90;;;18.90;76.50;;;;;;5028550;28;20610;-55
2021/07/11 08:58:18;;;;;;;2.20;2.10;;;18.90;78.30;;;;;;5037687;28;20221;-55
2021/07/11 09:00:44;;;;;;;4.23;2.10;;;18.80;79.50;;;;;;5033676;28;20215;-55
2021/07/11 09:03:09;;;;;;;2.73;2.13;;;18.90;83.60;;;;;;5041417;28;20202;-56
2021/07/11 09:05:40;;;;;;;2.30;1.93;;;19.10;84.20;;;;;;5031478;28;20281;-55
2021/07/11 09:08:08;;;;;;;1.90;1.80;;;19.20;80.80;;;;;;5038777;28;20671;-55
2021/07/11 09:10:47;;;;;;;1.93;1.80;;;19.30;78.20;;;;;;5029133;28;20512;-56
2021/07/11 09:13:15;;;;;;;2.20;2.00;;;19.30;76.50;;;;;;5035095;28;20449;-54
2021/07/11 09:15:45;;;;;;;4.60;2.10;;;19.20;75.40;;;;;;5043052;28;20953;-53
2021/07/11 09:18:11;;;;;;;2.00;1.73;;;19.10;75.00;;;;;;5033657;28;20454;-54
2021/07/11 09:21:00;;;;;;;1.83;1.73;;;18.90;76.00;;;;;;5036990;28;20959;-55
2021/07/11 09:23:27;;;;;;;4.93;2.30;;;18.90;80.50;;;;;;5039049;28;20466;-54
2021/07/11 09:26:13;;;;;;;2.00;1.90;;;19.10;84.20;;;;;;5037673;28;20457;-54
2021/07/11 09:28:44;;;;;;;2.17;1.97;;;19.40;74.30;;;;;;5034562;28;20472;-55
2021/07/11 09:31:13;;;;;;;4.03;1.87;;;19.60;78.70;;;;;;5034460;28;20526;-54
2021/07/11 09:33:43;;;;;;;2.60;1.70;;;19.90;78.70;;;;;;5033798;28;20520;-56
2021/07/11 09:36:17;;;;;;;2.10;1.90;;;20.30;69.30;;;;;;5038492;28;20427;-55
2021/07/11 09:38:51;;;;;;;2.20;2.00;;;20.60;63.60;;;;;;5037503;28;20434;-54
2021/07/11 09:41:27;;;;;;;3.20;1.80;;;20.70;63.90;;;;;;5035606;28;20614;-55
2021/07/11 09:43:55;;;;;;;1.80;1.70;;;20.70;64.20;;;;;;5041877;28;20571;-57
2021/07/11 09:46:22;;;;;;;1.70;1.60;;;20.80;63.80;;;;;;5035882;28;20430;-57
2021/07/11 09:48:49;;;;;;;1.70;1.50;;;20.60;61.70;;;;;;5037732;28;20465;-57
2021/07/11 09:51:26;;;;;;;1.73;1.60;;;20.40;61.90;;;;;;5037873;28;20458;-55
2021/07/11 09:53:53;;;;;;;1.67;1.50;;;20.20;63.60;;;;;;5034051;28;20956;-59
2021/07/11 09:56:46;;;;;;;2.63;1.70;;;20.10;63.50;;;;;;5033313;28;20426;-53
2021/07/11 09:59:14;;;;;;;1.90;1.80;;;20.20;64.80;;;;;;5034678;28;20438;-55
2021/07/11 10:01:43;;;;;;;2.20;2.00;;;20.50;65.60;;;;;;5033044;28;20525;-55
2021/07/11 10:04:09;;;;;;;1.50;1.40;;;20.70;63.00;;;;;;5036956;28;20509;-57
2021/07/11 10:06:36;;;;;;;1.40;1.30;;;20.80;60.60;;;;;;5023955;28;20483;-56
2021/07/11 10:09:04;;;;;;;1.70;1.60;;;20.90;61.60;;;;;;5032735;28;20536;-56
2021/07/11 10:11:29;;;;;;;1.60;1.50;;;21.00;58.90;;;;;;5033308;28;20453;-55
2021/07/11 10:13:55;;;;;;;1.70;1.60;;;21.10;57.20;;;;;;5034108;28;20433;-55
2021/07/11 10:16:25;;;;;;;2.00;1.80;;;21.30;58.70;;;;;;5029624;28;20193;-56
2021/07/11 10:18:58;;;;;;;1.63;1.53;;;21.50;59.30;;;;;;5032830;28;20194;-55
2021/07/11 10:21:29;;;;;;;2.90;1.83;;;21.70;58.00;;;;;;5038974;28;20465;-56
2021/07/11 10:23:55;;;;;;;2.23;1.77;;;21.80;60.40;;;;;;5033257;28;20627;-55
2021/07/11 10:26:21;;;;;;;2.07;1.87;;;22.00;61.60;;;;;;5042655;28;20530;-55
2021/07/11 10:28:48;;;;;;;1.97;1.87;;;22.20;59.90;;;;;;5034057;28;20548;-57
2021/07/11 10:31:26;;;;;;;2.37;2.17;;;22.20;59.50;;;;;;5034682;28;20687;-56
2021/07/11 10:33:55;;;;;;;2.37;2.07;;;22.10;60.00;;;;;;5033975;28;20894;-56
2021/07/11 10:36:32;;;;;;;2.43;2.13;;;21.70;59.60;;;;;;5033912;28;20418;-56
2021/07/11 10:38:58;;;;;;;2.80;1.80;;;21.40;60.80;;;;;;5038912;28;20421;-55
2021/07/11 10:41:30;;;;;;;2.40;1.57;;;21.10;62.30;;;;;;5030807;28;20871;-57
2021/07/11 10:44:04;;;;;;;2.60;2.07;;;20.80;63.50;;;;;;5025696;28;20455;-56
2021/07/11 10:46:46;;;;;;;2.87;1.60;;;20.50;64.80;;;;;;5034785;28;20426;-55
2021/07/11 10:49:49;;;;;;;1.60;1.50;;;20.30;65.00;;;;;;5035966;28;20520;-55
2021/07/11 10:52:22;;;;;;;2.30;1.80;;;20.10;63.80;;;;;;5037150;28;20575;-54
2021/07/11 10:54:53;;;;;;;1.90;1.80;;;20.00;63.40;;;;;;5037157;28;20532;-56
2021/07/11 10:57:34;;;;;;;1.90;1.60;;;20.00;65.20;;;;;;5036463;28;20952;-53
2021/07/11 11:00:08;;;;;;;2.00;1.80;;;20.10;72.20;;;;;;5035500;28;20429;-56
2021/07/11 11:02:34;;;;;;;3.73;1.83;;;20.40;72.10;;;;;;5036763;28;20432;-54
2021/07/11 11:05:02;;;;;;;2.67;2.40;;;20.50;68.70;;;;;;5039097;28;21449;-55
2021/07/11 11:07:42;;;;;;;2.30;1.83;;;20.40;74.30;;;;;;5035843;28;20446;-56
2021/07/11 11:10:44;;;;;;;6.93;2.13;;;20.30;76.90;;;;;;5036501;28;20509;-55
2021/07/11 11:13:16;;;;;;;2.23;1.70;;;20.00;80.10;;;;;;5004567;28;20437;-55
2021/07/11 11:15:48;;;;;;;2.37;1.70;;;19.90;82.20;;;;;;5037905;28;20540;-55
2021/07/11 11:18:21;;;;;;;1.83;1.70;;;19.70;86.30;;;;;;5031058;28;20465;-55
2021/07/11 11:20:53;;;;;;;2.73;2.10;;;19.60;88.90;;;;;;5038934;28;20452;-56
2021/07/11 11:23:19;;;;;;;4.10;2.10;;;19.50;90.10;;;;;;5041549;28;20425;-56
2021/07/11 11:25:46;;;;;;;1.60;1.50;;;19.50;90.60;;;;;;5036122;28;21876;-56
2021/07/11 11:28:12;;;;;;;3.40;2.00;;;19.40;90.20;;;;;;5039146;28;20905;-56
2021/07/11 11:30:39;;;;;;;2.10;1.93;;;19.40;91.20;;;;;;5038513;28;20444;-57
2021/07/11 11:33:05;;;;;;;5.10;2.70;;;19.50;91.90;;;;;;5041713;28;20432;-57
2021/07/11 11:35:36;;;;;;;4.43;2.60;;;19.70;93.50;;;;;;5039635;28;20441;-57
2021/07/11 11:38:06;;;;;;;1.80;1.70;;;20.00;94.40;;;;;;5038962;28;20378;-56
2021/07/11 11:40:35;;;;;;;3.30;1.80;;;20.20;94.50;;;;;;5039393;28;20965;-55
2021/07/11 11:43:03;;;;;;;2.47;1.83;;;20.30;93.60;;;;;;5035925;28;20422;-56
2021/07/11 11:45:31;;;;;;;2.53;1.87;;;20.30;92.50;;;;;;5036749;28;20548;-56
2021/07/11 11:48:03;;;;;;;1.93;1.70;;;20.20;92.60;;;;;;5040112;28;20476;-55
2021/07/11 11:50:30;;;;;;;2.40;1.90;;;20.10;93.50;;;;;;5037965;28;20415;-56
2021/07/11 11:53:08;;;;;;;3.07;1.50;;;20.00;94.40;;;;;;5039654;28;20933;-56
2021/07/11 11:55:36;;;;;;;2.13;1.77;;;19.80;93.80;;;;;;5035777;28;20429;-57
2021/07/11 11:58:07;;;;;;;1.80;1.70;;;19.70;94.70;;;;;;5036272;28;20425;-56
2021/07/11 12:00:34;;;;;;;4.10;1.97;;;19.50;95.60;;;;;;5037841;28;20468;-56
2021/07/11 12:03:07;;;;;;;3.70;2.20;;;19.40;96.30;;;;;;5041855;28;20492;-55
2021/07/11 12:05:35;;;;;;;1.90;1.80;;;19.30;97.30;;;;;;5037100;28;20464;-56
2021/07/11 12:08:02;;;;;;;3.50;2.33;;;19.20;99.40;;;;;;5034477;28;20449;-57
2021/07/11 12:10:29;;;;;;;4.10;2.20;;;19.20;99.90;;;;;;5039536;28;20761;-56
2021/07/11 12:13:00;;;;;;;2.20;2.00;;;19.10;99.90;;;;;;5038394;28;20418;-55
2021/07/11 12:15:35;;;;;;;2.77;2.03;;;19.10;99.90;;;;;;5037146;28;20457;-55
2021/07/11 12:18:03;;;;;;;4.10;2.30;;;19.00;99.90;;;;;;5036065;28;21151;-55
2021/07/11 12:20:29;;;;;;;5.23;2.40;;;19.00;99.90;;;;;;5032859;28;21089;-57
2021/07/11 12:22:57;;;;;;;2.67;2.30;;;19.10;99.90;;;;;;5033865;28;20425;-56
2021/07/11 12:25:29;;;;;;;3.67;2.40;;;19.10;99.90;;;;;;5035013;28;20227;-56
2021/07/11 12:28:00;;;;;;;2.97;2.30;;;19.10;99.30;;;;;;5034744;28;20544;-55
2021/07/11 12:30:36;;;;;;;2.43;2.10;;;19.20;98.20;;;;;;5036407;28;21026;-53
2021/07/11 12:33:02;;;;;;;4.20;1.80;;;19.30;97.40;;;;;;5037094;28;20429;-55
2021/07/11 12:35:30;;;;;;;2.07;1.73;;;19.40;98.30;;;;;;5036218;28;20540;-55
2021/07/11 12:38:00;;;;;;;2.93;2.10;;;19.60;98.80;;;;;;5037053;28;20438;-56
2021/07/11 12:43:08;;;;;;;3.40;2.20;;;19.90;96.00;;;;;;5001975;28;20463;-57
2021/07/11 12:45:36;;;;;;;6.43;2.07;;;20.40;97.70;;;;;;4997680;28;20467;-59
2021/07/11 12:48:03;;;;;;;2.03;1.83;;;20.80;97.00;;;;;;5004417;28;20538;-59
2021/07/11 12:50:41;;;;;;;2.00;1.90;;;21.00;95.90;;;;;;5003298;28;20485;-57
2021/07/11 12:53:08;;;;;;;3.60;2.13;;;21.20;93.70;;;;;;5003593;28;20435;-57